createdAt,value
2018-12-07T00:02:20.973Z,9.36
2018-12-07T00:04:48.509Z,9.40
2018-12-07T00:07:16.044Z,9.46
2018-12-07T00:09:43.598Z,9.38
2018-12-07T00:12:11.289Z,9.38
2018-12-07T00:14:39.109Z,9.37
2018-12-07T00:17:06.643Z,9.34
2018-12-07T00:19:34.282Z,9.38
2018-12-07T00:22:02.413Z,9.36
2018-12-07T00:24:30.127Z,9.37
2018-12-07T00:26:57.721Z,9.40
2018-12-07T00:29:25.540Z,9.37
2018-12-07T00:31:53.182Z,9.32
2018-12-07T00:34:20.729Z,9.34
2018-12-07T00:36:48.299Z,9.34
2018-12-07T00:39:15.917Z,9.37
2018-12-07T00:41:43.681Z,9.34
2018-12-07T00:44:11.202Z,9.32
2018-12-07T00:46:38.721Z,9.35
2018-12-07T00:49:06.301Z,9.30
2018-12-07T00:51:33.858Z,9.38
2018-12-07T00:54:01.423Z,9.42
2018-12-07T00:56:28.962Z,9.44
2018-12-07T00:58:56.570Z,9.41
2018-12-07T01:01:24.235Z,9.42
2018-12-07T01:03:51.789Z,9.42
2018-12-07T01:06:19.304Z,9.45
2018-12-07T01:08:46.842Z,9.44
2018-12-07T01:11:14.427Z,9.43
2018-12-07T01:13:41.958Z,9.48
2018-12-07T01:16:09.570Z,9.42
2018-12-07T01:18:37.144Z,9.42
2018-12-07T01:21:04.676Z,9.49
2018-12-07T01:23:32.208Z,9.52
2018-12-07T01:25:59.733Z,9.47
2018-12-07T01:28:27.310Z,9.42
2018-12-07T01:30:54.836Z,9.41
2018-12-07T01:33:22.362Z,9.43
2018-12-07T01:35:49.917Z,9.38
2018-12-07T01:38:17.446Z,9.38
2018-12-07T01:40:44.986Z,9.34
2018-12-07T01:43:12.562Z,9.41
2018-12-07T01:45:40.091Z,9.39
2018-12-07T01:48:07.762Z,9.47
2018-12-07T01:50:35.320Z,9.46
2018-12-07T01:53:02.878Z,9.46
2018-12-07T01:55:30.449Z,9.50
2018-12-07T01:57:58.069Z,9.57
2018-12-07T02:00:25.733Z,9.56
2018-12-07T02:02:53.285Z,9.61
2018-12-07T02:05:20.813Z,9.67
2018-12-07T02:07:48.383Z,9.68
2018-12-07T02:10:15.921Z,9.74
2018-12-07T02:12:43.727Z,9.79
2018-12-07T02:15:11.410Z,9.80
2018-12-07T02:17:38.954Z,9.83
2018-12-07T02:20:06.510Z,9.79
2018-12-07T02:22:34.054Z,9.75
2018-12-07T02:25:01.575Z,9.73
2018-12-07T02:27:32.350Z,9.77
2018-12-07T02:29:59.854Z,9.81
2018-12-07T02:32:27.394Z,9.78
2018-12-07T02:34:54.946Z,9.76
2018-12-07T02:37:22.481Z,9.80
2018-12-07T02:39:50.038Z,9.80
2018-12-07T02:42:17.563Z,9.91
2018-12-07T02:44:45.201Z,9.86
2018-12-07T02:47:12.736Z,9.84
2018-12-07T02:49:40.257Z,9.80
2018-12-07T02:52:07.821Z,9.80
2018-12-07T02:54:35.382Z,9.82
2018-12-07T02:57:03.022Z,9.74
2018-12-07T02:59:30.569Z,9.73
2018-12-07T03:01:58.153Z,9.62
2018-12-07T03:04:25.711Z,9.69
2018-12-07T03:06:53.274Z,9.68
2018-12-07T03:09:20.843Z,9.70
2018-12-07T03:11:48.689Z,9.69
2018-12-07T03:14:16.234Z,9.72
2018-12-07T03:16:43.842Z,9.62
2018-12-07T03:19:11.422Z,9.61
2018-12-07T03:21:38.978Z,9.63
2018-12-07T03:24:06.790Z,9.61
2018-12-07T03:26:34.330Z,9.62
2018-12-07T03:29:01.973Z,9.58
2018-12-07T03:31:29.557Z,9.60
2018-12-07T03:33:57.165Z,9.61
2018-12-07T03:36:24.990Z,9.62
2018-12-07T03:38:52.582Z,9.62
2018-12-07T03:41:20.106Z,9.58
2018-12-07T03:43:47.670Z,9.58
2018-12-07T03:46:15.201Z,9.58
2018-12-07T03:48:42.721Z,9.70
2018-12-07T03:51:10.268Z,9.63
2018-12-07T03:53:37.795Z,9.58
2018-12-07T03:56:05.318Z,9.56
2018-12-07T03:58:32.855Z,9.51
2018-12-07T04:01:00.391Z,9.58
2018-12-07T04:03:27.925Z,9.49
2018-12-07T04:05:55.460Z,9.55
2018-12-07T04:08:23.031Z,9.51
2018-12-07T04:10:50.553Z,9.53
2018-12-07T04:13:18.090Z,9.54
2018-12-07T04:15:45.704Z,9.53
2018-12-07T04:18:13.314Z,9.53
2018-12-07T04:20:40.840Z,9.54
2018-12-07T04:23:08.383Z,9.47
2018-12-07T04:25:35.988Z,9.48
2018-12-07T04:28:03.746Z,9.46
2018-12-07T04:30:31.302Z,9.43
2018-12-07T04:32:58.835Z,9.39
2018-12-07T04:35:26.385Z,9.45
2018-12-07T04:37:53.892Z,9.43
2018-12-07T04:40:21.413Z,9.40
2018-12-07T04:42:49.287Z,9.45
2018-12-07T04:45:16.950Z,9.30
2018-12-07T04:47:44.458Z,9.34
2018-12-07T04:50:12.347Z,9.36
2018-12-07T04:52:39.983Z,9.34
2018-12-07T04:55:07.537Z,9.33
2018-12-07T04:57:35.098Z,9.37
2018-12-07T05:00:03.066Z,9.42
2018-12-07T05:02:30.946Z,9.44
2018-12-07T05:04:58.453Z,9.40
2018-12-07T05:07:25.991Z,9.34
2018-12-07T05:09:53.547Z,9.41
2018-12-07T05:12:21.096Z,9.39
2018-12-07T05:14:48.630Z,9.42
2018-12-07T05:17:16.155Z,9.39
2018-12-07T05:19:43.738Z,9.37
2018-12-07T05:22:11.299Z,9.42
2018-12-07T05:24:38.848Z,9.34
2018-12-07T05:27:06.901Z,9.29
2018-12-07T05:29:34.440Z,9.37
2018-12-07T05:32:02.015Z,9.37
2018-12-07T05:34:29.610Z,9.40
2018-12-07T05:36:57.194Z,9.49
2018-12-07T05:39:24.752Z,9.50
2018-12-07T05:41:52.298Z,9.48
2018-12-07T05:44:20.112Z,9.51
2018-12-07T05:46:47.747Z,9.44
2018-12-07T05:49:16.231Z,9.43
2018-12-07T05:51:44.118Z,9.44
2018-12-07T05:54:11.680Z,9.50
2018-12-07T05:56:39.226Z,9.49
2018-12-07T05:59:06.786Z,9.48
2018-12-07T06:01:34.331Z,9.51
2018-12-07T06:04:02.019Z,9.49
2018-12-07T06:06:29.553Z,9.55
2018-12-07T06:08:57.202Z,9.53
2018-12-07T06:11:25.010Z,9.52
2018-12-07T06:13:52.537Z,9.56
2018-12-07T06:16:20.082Z,9.54
2018-12-07T06:18:47.890Z,9.53
2018-12-07T06:21:15.515Z,9.53
2018-12-07T06:23:43.140Z,9.60
2018-12-07T06:26:10.992Z,9.59
2018-12-07T06:28:38.516Z,9.46
2018-12-07T06:31:06.033Z,9.49
2018-12-07T06:33:33.858Z,9.46
2018-12-07T06:36:01.395Z,9.51
2018-12-07T06:38:28.954Z,9.53
2018-12-07T06:40:56.911Z,9.47
2018-12-07T06:43:24.446Z,9.44
2018-12-07T06:45:51.965Z,9.48
2018-12-07T06:48:19.502Z,9.53
2018-12-07T06:50:47.021Z,9.48
2018-12-07T06:53:14.562Z,9.51
2018-12-07T06:55:42.114Z,9.46
2018-12-07T06:58:09.634Z,9.51
2018-12-07T07:00:37.274Z,9.57
2018-12-07T07:03:04.838Z,9.58
2018-12-07T07:05:32.350Z,9.47
2018-12-07T07:08:00.006Z,9.38
2018-12-07T07:10:27.521Z,9.41
2018-12-07T07:12:55.055Z,9.35
2018-12-07T07:15:22.628Z,9.39
2018-12-07T07:17:50.170Z,9.34
2018-12-07T07:20:17.702Z,9.33
2018-12-07T07:22:45.278Z,9.32
2018-12-07T07:25:12.804Z,9.23
2018-12-07T07:27:40.550Z,9.21
2018-12-07T07:30:08.720Z,9.16
2018-12-07T07:32:36.244Z,9.22
2018-12-07T07:35:04.916Z,9.21
2018-12-07T07:37:32.434Z,9.22
2018-12-07T07:40:00.035Z,9.27
2018-12-07T07:42:28.250Z,9.29
2018-12-07T07:44:55.769Z,9.28
2018-12-07T07:47:23.594Z,9.32
2018-12-07T07:49:51.209Z,9.39
2018-12-07T07:52:18.765Z,9.42
2018-12-07T07:54:46.292Z,9.51
2018-12-07T07:57:13.850Z,9.48
2018-12-07T07:59:41.389Z,9.56
2018-12-07T08:02:08.921Z,9.74
2018-12-07T08:04:36.492Z,9.81
2018-12-07T08:07:04.135Z,9.87
2018-12-07T08:09:31.690Z,9.92
2018-12-07T08:11:59.208Z,10.00
2018-12-07T08:14:26.774Z,9.89
2018-12-07T08:16:54.333Z,9.93
2018-12-07T08:19:21.849Z,10.12
2018-12-07T08:21:49.373Z,10.17
2018-12-07T08:24:16.910Z,10.14
2018-12-07T08:26:44.434Z,10.01
2018-12-07T08:29:11.983Z,10.08
2018-12-07T08:31:39.646Z,10.02
2018-12-07T08:34:07.233Z,9.97
2018-12-07T08:36:34.760Z,9.90
2018-12-07T08:39:03.754Z,9.83
2018-12-07T08:41:31.337Z,9.82
2018-12-07T08:43:58.896Z,9.83
2018-12-07T08:46:26.466Z,9.84
2018-12-07T08:48:54.061Z,9.93
2018-12-07T08:51:23.509Z,9.95
2018-12-07T08:53:51.076Z,9.89
2018-12-07T08:56:18.697Z,9.91
2018-12-07T08:58:46.621Z,9.90
2018-12-07T09:01:14.169Z,9.89
2018-12-07T09:03:41.721Z,9.80
2018-12-07T09:06:09.344Z,9.82
2018-12-07T09:08:36.907Z,9.85
2018-12-07T09:11:04.589Z,9.85
2018-12-07T09:13:32.775Z,9.79
2018-12-07T09:16:00.335Z,9.85
2018-12-07T09:18:28.218Z,9.82
2018-12-07T09:20:55.757Z,9.86
2018-12-07T09:23:23.281Z,9.87
2018-12-07T09:25:50.847Z,9.82
2018-12-07T09:28:18.382Z,9.79
2018-12-07T09:30:46.195Z,9.88
2018-12-07T09:33:13.763Z,9.84
2018-12-07T09:35:41.302Z,9.82
2018-12-07T09:38:13.180Z,9.75
2018-12-07T09:40:38.392Z,9.83
2018-12-07T09:43:06.014Z,9.83
2018-12-07T09:45:33.571Z,9.78
2018-12-07T09:48:01.290Z,9.89
2018-12-07T09:50:28.866Z,9.81
2018-12-07T09:52:56.376Z,9.72
2018-12-07T09:55:23.902Z,9.85
2018-12-07T09:57:51.723Z,9.85
2018-12-07T10:00:19.257Z,9.86
2018-12-07T10:02:46.768Z,9.96
2018-12-07T10:05:14.338Z,10.02
2018-12-07T10:07:41.853Z,10.04
2018-12-07T10:10:09.400Z,10.06
2018-12-07T10:12:36.955Z,10.06
2018-12-07T10:15:04.895Z,10.22
2018-12-07T10:17:32.518Z,10.22
2018-12-07T10:20:00.083Z,10.34
2018-12-07T10:22:27.699Z,10.39
2018-12-07T10:24:55.217Z,10.43
2018-12-07T10:27:22.802Z,10.38
2018-12-07T10:29:50.353Z,10.34
2018-12-07T10:32:17.895Z,10.24
2018-12-07T10:34:45.434Z,10.27
2018-12-07T10:37:12.942Z,10.22
2018-12-07T10:39:40.497Z,10.24
2018-12-07T10:42:08.128Z,10.34
2018-12-07T10:44:35.701Z,10.54
2018-12-07T10:47:03.889Z,10.78
2018-12-07T10:49:31.405Z,10.84
2018-12-07T10:51:58.963Z,11.54
2018-12-07T10:54:26.590Z,12.83
2018-12-07T10:56:54.452Z,12.53
2018-12-07T10:59:22.071Z,13.02
2018-12-07T11:01:55.315Z,14.69
2018-12-07T11:04:28.446Z,15.54
2018-12-07T11:07:03.433Z,14.93
2018-12-07T11:09:36.742Z,14.44
2018-12-07T11:12:10.242Z,15.35
2018-12-07T11:14:43.472Z,15.35
2018-12-07T11:17:16.742Z,14.49
2018-12-07T11:19:49.982Z,13.41
2018-12-07T11:22:23.422Z,12.56
2018-12-07T11:25:56.479Z,11.83
2018-12-07T11:28:29.694Z,11.61
2018-12-07T11:31:02.973Z,11.64
2018-12-07T11:33:51.147Z,11.47
2018-12-07T11:36:18.698Z,11.45
2018-12-07T11:38:46.289Z,11.56
2018-12-07T11:41:13.873Z,11.39
2018-12-07T11:43:41.878Z,11.40
2018-12-07T11:46:09.405Z,11.52
2018-12-07T11:48:36.975Z,11.42
2018-12-07T11:51:04.765Z,11.40
2018-12-07T11:53:32.305Z,11.39
2018-12-07T11:55:59.893Z,11.50
2018-12-07T11:58:27.457Z,11.45
2018-12-07T12:00:55.011Z,11.40
2018-12-07T12:03:23.536Z,11.22
2018-12-07T12:05:51.070Z,11.19
2018-12-07T12:08:18.874Z,11.07
2018-12-07T12:10:46.482Z,10.88
2018-12-07T12:13:14.042Z,10.84
2018-12-07T12:15:41.627Z,10.70
2018-12-07T12:18:09.203Z,10.60
2018-12-07T12:20:37.069Z,10.66
2018-12-07T12:23:05.589Z,10.66
2018-12-07T12:25:33.158Z,10.62
2018-12-07T12:28:00.709Z,10.68
2018-12-07T12:30:28.291Z,10.79
2018-12-07T12:32:55.868Z,10.83
2018-12-07T12:35:23.619Z,10.70
2018-12-07T12:37:51.161Z,10.64
2018-12-07T12:40:18.711Z,10.54
2018-12-07T12:42:46.325Z,10.41
2018-12-07T12:45:13.869Z,10.37
2018-12-07T12:47:41.397Z,10.36
2018-12-07T12:50:13.514Z,10.36
2018-12-07T12:52:41.078Z,10.29
2018-12-07T12:55:08.648Z,10.19
2018-12-07T12:57:36.189Z,10.21
2018-12-07T13:00:04.330Z,10.37
2018-12-07T13:02:31.905Z,10.32
2018-12-07T13:04:59.461Z,10.31
2018-12-07T13:07:27.019Z,10.40
2018-12-07T13:09:54.576Z,10.36
2018-12-07T13:12:22.103Z,10.37
2018-12-07T13:14:49.658Z,10.31
2018-12-07T13:17:17.223Z,10.34
2018-12-07T13:19:44.745Z,10.28
2018-12-07T13:22:12.320Z,10.32
2018-12-07T13:24:39.877Z,10.31
2018-12-07T13:27:07.491Z,10.39
2018-12-07T13:29:35.054Z,10.25
2018-12-07T13:32:02.749Z,10.35
2018-12-07T13:34:30.320Z,10.39
2018-12-07T13:36:57.859Z,10.33
2018-12-07T13:39:25.433Z,10.29
2018-12-07T13:41:53.211Z,10.19
2018-12-07T13:44:20.989Z,10.01
2018-12-07T13:46:48.964Z,9.89
2018-12-07T13:49:16.603Z,10.00
2018-12-07T13:51:44.533Z,9.91
2018-12-07T13:54:12.333Z,10.01
2018-12-07T13:56:40.029Z,9.93
2018-12-07T13:59:07.782Z,9.91
2018-12-07T14:01:35.637Z,9.90
2018-12-07T14:04:03.343Z,9.84
2018-12-07T14:06:31.429Z,9.90
2018-12-07T14:08:59.087Z,9.78
2018-12-07T14:11:26.722Z,9.78
2018-12-07T14:13:54.444Z,9.77
2018-12-07T14:16:22.214Z,9.78
2018-12-07T14:18:50.019Z,9.75
2018-12-07T14:21:18.173Z,9.64
2018-12-07T14:23:46.008Z,9.77
2018-12-07T14:26:14.344Z,9.77
2018-12-07T14:28:42.308Z,9.81
2018-12-07T14:31:09.994Z,9.82
2018-12-07T14:33:37.852Z,9.76
2018-12-07T14:36:05.752Z,9.85
2018-12-07T14:38:33.628Z,9.83
2018-12-07T14:41:01.682Z,9.74
2018-12-07T14:43:29.256Z,9.77
2018-12-07T14:45:56.847Z,9.75
2018-12-07T14:48:24.787Z,9.83
2018-12-07T14:50:52.521Z,9.84
2018-12-07T14:53:20.112Z,9.85
2018-12-07T14:55:47.890Z,9.95
2018-12-07T14:58:15.623Z,9.89
2018-12-07T15:00:43.318Z,9.84
2018-12-07T15:03:11.034Z,9.84
2018-12-07T15:05:38.721Z,9.84
2018-12-07T15:08:06.602Z,9.85
2018-12-07T15:10:34.638Z,9.84
2018-12-07T15:13:02.450Z,9.73
2018-12-07T15:15:30.032Z,9.71
2018-12-07T15:17:57.598Z,9.66
2018-12-07T15:20:25.274Z,9.71
2018-12-07T15:22:52.950Z,9.71
2018-12-07T15:25:20.728Z,9.67
2018-12-07T15:27:48.587Z,9.67
2018-12-07T15:30:16.200Z,9.64
2018-12-07T15:32:43.803Z,9.57
2018-12-07T15:35:11.601Z,9.53
2018-12-07T15:37:39.333Z,9.49
2018-12-07T15:40:08.909Z,9.45
2018-12-07T15:42:36.825Z,9.40
2018-12-07T15:45:05.435Z,9.25
2018-12-07T15:47:33.634Z,9.23
2018-12-07T15:50:01.595Z,9.28
2018-12-07T15:52:29.275Z,9.22
2018-12-07T15:54:57.062Z,9.21
2018-12-07T15:57:24.903Z,9.12
2018-12-07T15:59:52.910Z,9.03
2018-12-07T16:02:20.542Z,8.93
2018-12-07T16:04:48.179Z,8.95
2018-12-07T16:07:15.991Z,8.82
2018-12-07T16:09:43.719Z,8.88
2018-12-07T16:12:11.441Z,8.76
2018-12-07T16:14:39.193Z,8.70
2018-12-07T16:17:07.189Z,8.70
2018-12-07T16:19:34.781Z,8.59
2018-12-07T16:22:02.575Z,8.48
2018-12-07T16:24:30.530Z,8.50
2018-12-07T16:26:58.317Z,8.49
2018-12-07T16:29:26.232Z,8.49
2018-12-07T16:31:54.219Z,8.48
2018-12-07T16:34:22.135Z,8.47
2018-12-07T16:36:49.837Z,8.52
2018-12-07T16:39:17.508Z,8.47
2018-12-07T16:41:45.184Z,8.56
2018-12-07T16:44:12.907Z,8.51
2018-12-07T16:46:40.612Z,8.54
2018-12-07T16:49:08.355Z,8.55
2018-12-07T16:51:36.255Z,8.59
2018-12-07T16:54:04.000Z,8.63
2018-12-07T16:56:32.127Z,8.72
2018-12-07T16:58:59.666Z,8.79
2018-12-07T17:01:27.347Z,8.85
2018-12-07T17:03:55.303Z,8.89
2018-12-07T17:06:23.353Z,8.97
2018-12-07T17:08:52.054Z,9.05
2018-12-07T17:11:19.931Z,9.07
2018-12-07T17:13:48.009Z,9.02
2018-12-07T17:16:15.942Z,8.98
2018-12-07T17:18:43.743Z,9.06
2018-12-07T17:21:11.606Z,9.01
2018-12-07T17:23:39.521Z,9.05
2018-12-07T17:26:07.202Z,9.07
2018-12-07T17:28:34.999Z,8.98
2018-12-07T17:31:02.711Z,8.98
2018-12-07T17:33:30.540Z,9.04
2018-12-07T17:35:58.207Z,8.93
2018-12-07T17:38:26.110Z,8.96
2018-12-07T17:40:54.071Z,8.99
2018-12-07T17:43:21.838Z,8.98
2018-12-07T17:45:49.479Z,8.99
2018-12-07T17:48:17.221Z,8.96
2018-12-07T17:50:44.951Z,8.99
2018-12-07T17:53:12.845Z,9.06
2018-12-07T17:55:40.608Z,9.13
2018-12-07T17:58:08.520Z,9.07
2018-12-07T18:00:36.515Z,9.08
2018-12-07T18:03:04.186Z,9.08
2018-12-07T18:05:31.923Z,9.12
2018-12-07T18:07:59.760Z,9.08
2018-12-07T18:10:27.737Z,9.00
2018-12-07T18:12:55.475Z,9.03
2018-12-07T18:15:23.324Z,8.99
2018-12-07T18:17:51.347Z,8.97
2018-12-07T18:20:19.092Z,9.03
2018-12-07T18:22:46.793Z,9.05
2018-12-07T18:25:14.548Z,8.95
2018-12-07T18:27:42.235Z,8.94
2018-12-07T18:30:10.138Z,8.96
2018-12-07T18:32:38.007Z,8.93
2018-12-07T18:35:06.050Z,8.93
2018-12-07T18:37:33.843Z,8.87
2018-12-07T18:40:01.595Z,8.82
2018-12-07T18:42:29.268Z,8.93
2018-12-07T18:44:56.927Z,8.94
2018-12-07T18:47:24.854Z,8.93
2018-12-07T18:49:54.866Z,8.92
2018-12-07T18:52:23.053Z,8.92
2018-12-07T18:54:50.779Z,8.90
2018-12-07T18:57:18.640Z,8.88
2018-12-07T18:59:46.799Z,8.82
2018-12-07T19:02:14.537Z,8.80
2018-12-07T19:04:42.225Z,8.75
2018-12-07T19:07:10.009Z,8.59
2018-12-07T19:09:37.809Z,8.60
2018-12-07T19:12:05.423Z,8.53
2018-12-07T19:14:33.183Z,8.42
2018-12-07T19:17:00.936Z,8.36
2018-12-07T19:19:28.721Z,8.41
2018-12-07T19:21:56.360Z,8.44
2018-12-07T19:24:23.959Z,8.49
2018-12-07T19:26:51.713Z,8.55
2018-12-07T19:29:19.507Z,8.53
2018-12-07T19:31:47.435Z,8.59
2018-12-07T19:34:15.230Z,8.57
2018-12-07T19:36:43.214Z,8.63
2018-12-07T19:39:11.017Z,8.72
2018-12-07T19:41:38.758Z,8.65
2018-12-07T19:44:06.348Z,8.74
2018-12-07T19:46:34.141Z,8.77
2018-12-07T19:49:02.224Z,8.78
2018-12-07T19:51:30.035Z,8.71
2018-12-07T19:53:57.674Z,8.77
2018-12-07T19:56:25.312Z,8.75
2018-12-07T19:58:53.214Z,8.79
2018-12-07T20:01:20.933Z,8.85
2018-12-07T20:03:48.586Z,8.81
2018-12-07T20:06:16.252Z,8.75
2018-12-07T20:08:44.214Z,8.69
2018-12-07T20:11:12.028Z,8.79
2018-12-07T20:13:51.395Z,8.73
2018-12-07T20:16:19.421Z,8.78
2018-12-07T20:18:48.271Z,8.76
2018-12-07T20:21:15.948Z,8.75
2018-12-07T20:23:43.664Z,8.76
2018-12-07T20:26:11.374Z,8.77
2018-12-07T20:28:39.027Z,8.78
2018-12-07T20:31:06.759Z,8.70
2018-12-07T20:33:34.710Z,8.52
2018-12-07T20:36:02.558Z,8.47
2018-12-07T20:38:30.508Z,8.41
2018-12-07T20:40:58.158Z,8.28
2018-12-07T20:43:26.306Z,8.17
2018-12-07T20:45:54.082Z,8.13
2018-12-07T20:48:21.991Z,8.13
2018-12-07T20:50:49.910Z,8.09
2018-12-07T20:53:23.177Z,8.05
2018-12-07T20:55:51.599Z,7.97
2018-12-07T20:58:29.784Z,7.95
2018-12-07T21:00:59.404Z,7.78
2018-12-07T21:03:30.319Z,7.77
2018-12-07T21:06:19.430Z,7.63
2018-12-07T21:12:14.170Z,7.08
2018-12-07T21:14:52.122Z,6.88
2018-12-07T21:17:31.234Z,6.95
2018-12-07T21:22:50.445Z,6.76
2018-12-07T21:25:18.191Z,6.68
2018-12-07T21:27:46.087Z,6.58
2018-12-07T21:31:17.212Z,6.59
2018-12-07T21:33:55.914Z,6.57
2018-12-07T21:36:34.740Z,6.39
2018-12-07T21:39:04.943Z,6.16
2018-12-07T21:41:32.804Z,6.13
2018-12-07T21:44:00.753Z,6.08
2018-12-07T21:46:28.571Z,5.96
2018-12-07T21:48:56.267Z,5.88
2018-12-07T21:51:26.123Z,5.87
2018-12-07T21:53:53.961Z,5.78
2018-12-07T21:56:21.868Z,5.77
2018-12-07T21:58:49.840Z,5.74
2018-12-07T22:01:17.476Z,5.70
2018-12-07T22:03:45.182Z,5.62
2018-12-07T22:06:13.013Z,5.61
2018-12-07T22:08:41.004Z,5.61
2018-12-07T22:11:08.976Z,5.60
2018-12-07T22:13:36.702Z,5.55
2018-12-07T22:16:04.310Z,5.60
2018-12-07T22:18:32.390Z,5.55
2018-12-07T22:21:00.026Z,5.63
2018-12-07T22:23:27.728Z,5.53
2018-12-07T22:25:55.532Z,5.58
2018-12-07T22:28:23.407Z,5.48
2018-12-07T22:30:51.018Z,5.54
2018-12-07T22:33:18.987Z,5.51
2018-12-07T22:35:46.574Z,5.55
2018-12-07T22:38:14.353Z,5.39
2018-12-07T22:40:42.209Z,5.36
2018-12-07T22:43:10.102Z,5.44
2018-12-07T22:45:38.502Z,5.36
2018-12-07T22:48:06.211Z,5.31
2018-12-07T22:50:33.835Z,5.31
2018-12-07T22:53:01.400Z,5.28
2018-12-07T22:55:28.977Z,5.18
2018-12-07T22:57:56.533Z,5.03
2018-12-07T23:00:24.629Z,5.01
2018-12-07T23:02:52.189Z,4.96
2018-12-07T23:05:19.753Z,4.90
2018-12-07T23:07:47.582Z,4.94
2018-12-07T23:10:15.129Z,4.91
2018-12-07T23:12:42.718Z,4.72
2018-12-07T23:15:10.405Z,4.63
2018-12-07T23:17:37.974Z,4.53
2018-12-07T23:20:05.715Z,4.40
2018-12-07T23:22:33.323Z,4.45
2018-12-07T23:25:00.894Z,4.46
2018-12-07T23:27:28.688Z,4.38
2018-12-07T23:29:56.257Z,4.39
2018-12-07T23:32:23.782Z,4.43
2018-12-07T23:34:51.413Z,4.38
2018-12-07T23:37:19.004Z,4.40
2018-12-07T23:39:46.567Z,4.35
2018-12-07T23:42:14.416Z,4.42
2018-12-07T23:44:41.976Z,4.39
2018-12-07T23:47:09.521Z,4.40
2018-12-07T23:49:37.076Z,4.35
2018-12-07T23:52:04.743Z,4.36
2018-12-07T23:54:32.295Z,4.46
2018-12-07T23:56:59.842Z,4.44
2018-12-07T23:59:27.401Z,4.48
